Time;durP1;ratioP1;P1;durP2;ratioP2;P2;SDS_P1;SDS_P2;PMS_P1;PMS_P2;Temp;Humidity;BMP_temperature;BMP_pressure;BME280_temperature;BME280_humidity;BME280_pressure;Samples;Min_cycle;Max_cycle;Signal;HPM_P1;HPM_P2
2021/05/09 00:00:53;;;;;;;95.83;49.63;;;;;;;6.52;75.38;101420.70;1719306;82;21247;-60
2021/05/09 00:03:22;;;;;;;25.45;12.85;;;;;;;6.51;75.42;101420.23;1738176;81;21204;-61
2021/05/09 00:05:51;;;;;;;89.50;47.13;;;;;;;6.48;75.48;101418.93;1720715;82;21177;-62
2021/05/09 00:08:18;;;;;;;62.25;33.55;;;;;;;6.45;75.69;101423.85;1718925;82;21274;-62
2021/05/09 00:10:46;;;;;;;30.70;16.07;;;;;;;6.42;75.91;101418.55;1719789;82;22962;-62
2021/05/09 00:13:14;;;;;;;7.33;3.58;;;;;;;6.40;76.07;101420.78;1752087;81;21967;-62
2021/05/09 00:15:43;;;;;;;6.47;2.10;;;;;;;6.39;76.33;101428.33;1744954;81;21177;-61
2021/05/09 00:18:11;;;;;;;2.87;1.37;;;;;;;6.37;76.25;101436.32;1725010;81;21580;-62
2021/05/09 00:20:39;;;;;;;4.70;1.72;;;;;;;6.37;76.39;101427.46;1746049;80;21296;-61
2021/05/09 00:23:07;;;;;;;2.87;1.35;;;;;;;6.35;76.32;101431.45;1789926;78;22055;-62
2021/05/09 00:25:35;;;;;;;4.30;1.60;;;;;;;6.30;76.24;101430.17;1783388;79;21197;-61
2021/05/09 00:28:05;;;;;;;3.85;1.67;;;;;;;6.27;76.20;101440.81;1808068;79;21192;-60
2021/05/09 00:30:34;;;;;;;3.72;2.05;;;;;;;6.22;76.22;101447.95;1812698;79;21500;-60
2021/05/09 00:33:04;;;;;;;1.92;1.30;;;;;;;6.18;76.63;101453.30;1791065;79;21201;-60
2021/05/09 00:35:32;;;;;;;2.22;1.45;;;;;;;6.12;76.84;101455.57;1801092;79;23110;-61
2021/05/09 00:38:01;;;;;;;3.58;1.30;;;;;;;6.08;77.02;101456.02;1781121;80;21202;-60
2021/05/09 00:40:28;;;;;;;2.77;1.17;;;;;;;6.05;77.08;101453.81;1790677;79;21734;-60
2021/05/09 00:42:56;;;;;;;1.45;1.25;;;;;;;6.02;77.21;101459.59;1801708;79;21192;-61
2021/05/09 00:45:24;;;;;;;1.77;1.15;;;;;;;5.97;77.28;101457.83;1808066;79;21197;-60
2021/05/09 00:47:54;;;;;;;2.87;1.50;;;;;;;5.92;77.56;101460.51;1786069;79;21738;-61
2021/05/09 00:50:22;;;;;;;2.83;1.55;;;;;;;5.88;77.59;101464.95;1812137;79;21557;-60
2021/05/09 00:52:51;;;;;;;3.30;1.40;;;;;;;5.85;77.74;101471.62;1809807;79;21177;-60
2021/05/09 00:55:18;;;;;;;4.42;1.60;;;;;;;5.84;77.69;101474.27;1788037;78;21220;-60
2021/05/09 00:57:46;;;;;;;3.25;1.90;;;;;;;5.83;77.89;101468.51;1770332;79;21158;-60
2021/05/09 01:00:16;;;;;;;3.60;1.45;;;;;;;5.81;78.02;101471.63;1794144;79;22319;-60
2021/05/09 01:02:46;;;;;;;2.10;1.47;;;;;;;5.82;77.99;101475.62;1789481;79;21555;-60
2021/05/09 01:05:14;;;;;;;2.22;1.42;;;;;;;5.79;77.95;101472.08;1720690;82;21201;-60
2021/05/09 01:07:44;;;;;;;3.10;1.22;;;;;;;5.74;77.81;101479.64;1729869;82;21197;-61
2021/05/09 01:10:13;;;;;;;7.17;1.47;;;;;;;5.70;77.68;101479.21;1780588;80;21219;-59
2021/05/09 01:12:44;;;;;;;2.75;1.30;;;;;;;5.66;77.63;101481.88;1771431;80;21368;-60
2021/05/09 01:15:13;;;;;;;4.58;1.32;;;;;;;5.56;77.74;101479.69;1764619;79;21416;-60
2021/05/09 01:17:41;;;;;;;2.35;1.32;;;;;;;5.56;77.74;101479.69;1762911;80;21649;-61
2021/05/09 01:20:21;;;;;;;4.00;1.87;;;;;;;5.51;77.85;101483.67;1733006;81;21206;-61
2021/05/09 01:22:49;;;;;;;2.20;1.60;;;;;;;5.47;77.92;101493.02;1796970;79;21185;-61
2021/05/09 01:25:17;;;;;;;3.83;1.62;;;;;;;5.39;78.09;101487.70;1767491;79;22408;-60
2021/05/09 01:27:45;;;;;;;5.10;1.67;;;;;;;5.33;78.48;101501.89;1733490;81;21213;-61
2021/05/09 01:30:13;;;;;;;3.08;1.90;;;;;;;5.33;78.48;101501.89;1763396;79;21652;-61
2021/05/09 01:32:42;;;;;;;3.83;1.87;;;;;;;5.29;78.65;101512.09;1787135;78;21213;-60
2021/05/09 01:35:11;;;;;;;5.33;2.00;;;;;;;5.27;78.80;101513.88;1764152;79;21252;-60
2021/05/09 01:37:39;;;;;;;4.87;1.90;;;;;;;5.23;79.03;101498.81;1776234;79;21396;-60
2021/05/09 01:40:11;;;;;;;6.15;2.02;;;;;;;5.20;79.24;101515.64;1785784;79;21197;-60
2021/05/09 01:42:40;;;;;;;4.10;1.82;;;;;;;5.18;79.42;101508.53;1770782;79;21202;-60
2021/05/09 01:45:09;;;;;;;4.92;2.08;;;;;;;5.15;79.55;101512.97;1793609;79;21186;-60
2021/05/09 01:47:37;;;;;;;5.47;1.82;;;;;;;5.14;79.72;101513.86;1768672;79;21130;-61
2021/05/09 01:50:12;;;;;;;2.87;1.67;;;;;;;5.10;79.56;101512.09;1791310;79;21443;-61
2021/05/09 01:52:39;;;;;;;7.42;1.98;;;;;;;5.14;79.81;101520.50;1763025;80;21222;-61
2021/05/09 01:55:10;;;;;;;5.65;2.00;;;;;;;5.09;80.12;101526.27;1763208;79;21202;-61
2021/05/09 01:57:38;;;;;;;4.83;2.10;;;;;;;5.09;80.12;101526.27;1736770;79;21194;-59
2021/05/09 02:00:18;;;;;;;4.92;2.25;;;;;;;5.04;80.20;101538.69;1762932;81;21257;-61
2021/05/09 02:02:47;;;;;;;6.05;2.17;;;;;;;5.00;80.54;101540.44;1764201;79;21810;-61
2021/05/09 02:05:17;;;;;;;4.53;2.10;;;;;;;5.00;80.54;101540.44;1711516;81;21241;-61
2021/05/09 02:07:46;;;;;;;5.50;1.90;;;;;;;4.96;81.09;101544.41;1746452;82;21199;-61
2021/05/09 02:10:30;;;;;;;6.33;1.85;;;;;;;4.96;81.09;101544.41;1729163;82;21620;-60
2021/05/09 02:13:00;;;;;;;6.40;2.40;;;;;;;4.96;81.20;101551.06;1730138;82;21198;-59
2021/05/09 02:15:30;;;;;;;4.55;1.98;;;;;;;4.97;81.29;101550.17;1729147;82;22701;-61
2021/05/09 02:18:00;;;;;;;4.40;1.90;;;;;;;4.98;81.29;101542.67;1727625;82;21186;-60
2021/05/09 02:20:30;;;;;;;4.37;1.82;;;;;;;5.00;81.32;101548.41;1685867;85;21790;-59
2021/05/09 02:22:58;;;;;;;2.80;1.80;;;;;;;5.02;81.29;101553.75;1724018;82;21244;-59
2021/05/09 02:25:26;;;;;;;4.55;1.82;;;;;;;5.04;81.22;101551.97;1731240;81;21066;-59
2021/05/09 02:27:57;;;;;;;5.62;2.22;;;;;;;5.04;81.21;101558.62;1723875;81;22014;-60
2021/05/09 02:30:25;;;;;;;4.60;1.95;;;;;;;5.01;81.41;101577.23;1723742;81;21268;-60
2021/05/09 02:32:54;;;;;;;4.12;2.08;;;;;;;5.01;81.41;101577.23;1731292;82;21474;-59
2021/05/09 02:35:22;;;;;;;5.25;1.90;;;;;;;4.99;81.50;101580.33;1731185;82;21179;-60
2021/05/09 02:37:50;;;;;;;3.75;2.10;;;;;;;4.98;81.62;101586.53;1702297;82;21184;-59
2021/05/09 02:40:19;;;;;;;3.20;2.12;;;;;;;4.96;81.79;101591.83;1657835;85;21128;-60
2021/05/09 02:42:48;;;;;;;3.75;1.77;;;;;;;4.98;81.97;101599.82;1731119;82;21218;-60
2021/05/09 02:45:16;;;;;;;5.05;2.20;;;;;;;4.99;82.04;101597.60;1731066;82;21211;-60
2021/05/09 02:47:45;;;;;;;5.53;2.65;;;;;;;4.98;81.96;101595.83;1711716;82;21205;-59
2021/05/09 02:50:14;;;;;;;5.37;1.98;;;;;;;5.01;82.02;101606.46;1689569;83;21217;-60
2021/05/09 02:52:42;;;;;;;10.85;2.25;;;;;;;5.05;81.93;101617.54;1716154;82;22167;-60
2021/05/09 02:55:13;;;;;;;7.00;2.58;;;;;;;5.09;81.86;101621.97;1684764;83;21235;-60
2021/05/09 02:57:42;;;;;;;3.22;2.02;;;;;;;5.15;81.77;101626.42;1631599;86;21217;-59
2021/05/09 03:00:12;;;;;;;3.33;2.00;;;;;;;5.18;81.61;101629.51;1680604;83;21209;-59
2021/05/09 03:02:42;;;;;;;6.12;2.17;;;;;;;5.20;81.50;101629.09;1684791;83;21242;-60
2021/05/09 03:05:13;;;;;;;3.85;2.33;;;;;;;5.22;81.36;101627.33;1686317;83;21965;-60
2021/05/09 03:07:41;;;;;;;7.37;2.12;;;;;;;5.23;81.30;101637.08;1685369;83;21641;-60
2021/05/09 03:10:11;;;;;;;3.62;2.22;;;;;;;5.25;81.33;101638.83;1679132;84;21226;-60
2021/05/09 03:12:41;;;;;;;4.42;2.10;;;;;;;5.29;81.02;101639.73;1689053;83;21172;-60
2021/05/09 03:15:11;;;;;;;3.40;2.12;;;;;;;5.37;80.75;101649.92;1690667;84;21218;-60
2021/05/09 03:17:39;;;;;;;4.70;2.30;;;;;;;5.37;80.75;101649.92;1718519;83;21573;-60
2021/05/09 03:20:09;;;;;;;7.00;2.47;;;;;;;5.42;80.54;101650.84;1691162;83;21241;-60
2021/05/09 03:22:37;;;;;;;5.55;2.42;;;;;;;5.52;80.19;101661.48;1700769;83;21518;-60
2021/05/09 03:25:05;;;;;;;4.37;2.50;;;;;;;5.52;80.19;101661.48;1678978;83;21416;-60
2021/05/09 03:27:33;;;;;;;3.60;2.50;;;;;;;5.60;80.05;101666.34;1700272;83;21200;-60
2021/05/09 03:30:03;;;;;;;4.10;2.60;;;;;;;5.72;79.53;101672.11;1739692;81;21197;-61
2021/05/09 03:32:31;;;;;;;6.97;2.85;;;;;;;5.77;79.60;101672.12;1763807;81;21210;-60
2021/05/09 03:35:00;;;;;;;5.62;2.60;;;;;;;5.77;79.60;101672.12;1751216;81;21190;-60
2021/05/09 03:37:28;;;;;;;4.47;2.50;;;;;;;5.86;79.26;101678.79;1733108;81;21189;-60
2021/05/09 03:39:58;;;;;;;4.87;2.37;;;;;;;5.95;79.11;101680.53;1733109;81;21227;-60
2021/05/09 03:42:26;;;;;;;6.08;2.60;;;;;;;6.05;79.08;101685.44;1751706;81;21994;-60
2021/05/09 03:44:56;;;;;;;5.30;2.65;;;;;;;6.28;78.53;101684.95;1732840;82;21241;-59
2021/05/09 03:50:12;;;;;;;7.95;2.35;;;;;;;6.41;78.14;101692.93;1746450;81;21221;-59
2021/05/09 03:52:40;;;;;;;6.55;2.87;;;;;;;6.52;77.80;101693.80;1743462;82;21158;-61
2021/05/09 03:55:09;;;;;;;5.97;2.85;;;;;;;6.67;77.45;101698.63;1723754;82;21912;-60
2021/05/09 03:57:37;;;;;;;7.95;2.83;;;;;;;6.80;77.07;101704.36;1747745;82;21201;-61
2021/05/09 04:00:09;;;;;;;5.28;3.00;;;;;;;6.91;76.48;101704.74;1746501;82;21197;-61
2021/05/09 04:02:41;;;;;;;4.83;2.50;;;;;;;7.02;76.11;101706.93;1717769;82;21209;-61
2021/05/09 04:05:11;;;;;;;4.15;2.60;;;;;;;7.12;75.57;101709.11;1728207;81;21291;-61
2021/05/09 04:07:38;;;;;;;6.72;2.90;;;;;;;7.24;75.16;101709.48;1747952;81;21273;-61
2021/05/09 04:10:08;;;;;;;10.58;3.02;;;;;;;7.34;74.84;101719.19;1725961;82;21210;-59
2021/05/09 04:12:35;;;;;;;6.72;2.65;;;;;;;7.40;74.19;101719.61;1718355;82;21197;-60
2021/05/09 04:15:05;;;;;;;6.25;2.45;;;;;;;7.47;74.03;101715.13;1744679;82;21185;-60
2021/05/09 04:17:33;;;;;;;5.62;2.65;;;;;;;7.57;73.33;101722.16;1728037;82;21194;-60
2021/05/09 04:20:01;;;;;;;5.47;2.47;;;;;;;7.64;73.14;101719.01;1685849;83;23163;-60
2021/05/09 04:22:28;;;;;;;4.53;2.30;;;;;;;7.69;72.50;101718.08;1743326;81;21240;-60
2021/05/09 04:24:57;;;;;;;6.37;2.25;;;;;;;7.73;72.46;101728.27;1721733;82;21503;-60
2021/05/09 04:27:25;;;;;;;7.37;2.92;;;;;;;7.81;72.47;101734.89;1716818;83;21212;-59
2021/05/09 04:29:53;;;;;;;5.42;2.77;;;;;;;7.89;72.13;101733.07;1716534;83;21233;-60
2021/05/09 04:32:21;;;;;;;4.37;2.77;;;;;;;8.00;71.90;101733.84;1724603;82;21221;-59
2021/05/09 04:34:49;;;;;;;4.33;2.72;;;;;;;8.12;71.47;101735.99;1741884;81;21443;-60
2021/05/09 04:37:17;;;;;;;4.10;2.80;;;;;;;8.17;70.61;101745.71;1746075;81;21237;-60
2021/05/09 04:39:45;;;;;;;4.53;2.60;;;;;;;8.20;70.45;101739.47;1728400;82;21503;-59
2021/05/09 04:42:13;;;;;;;6.05;3.10;;;;;;;8.23;70.52;101742.58;1745892;82;21220;-61
2021/05/09 04:44:40;;;;;;;6.75;2.70;;;;;;;8.29;70.75;101743.41;1717167;83;21923;-59
2021/05/09 04:47:08;;;;;;;4.90;2.22;;;;;;;8.43;70.53;101750.38;1737424;82;21182;-61
2021/05/09 04:49:36;;;;;;;4.55;2.60;;;;;;;8.57;70.05;101747.16;1741567;82;21231;-61
2021/05/09 04:52:05;;;;;;;9.30;2.75;;;;;;;8.77;69.37;101752.75;1737658;82;21214;-61
2021/05/09 04:54:33;;;;;;;5.07;2.53;;;;;;;8.91;69.08;101743.66;1735773;82;21213;-60
2021/05/09 04:57:01;;;;;;;3.37;2.45;;;;;;;8.95;67.90;101753.41;1734472;82;21412;-60
2021/05/09 04:59:28;;;;;;;7.42;2.85;;;;;;;8.94;68.42;101743.61;1721809;82;21229;-60
2021/05/09 05:01:56;;;;;;;7.03;3.10;;;;;;;8.99;68.15;101743.13;1708997;83;21440;-60
2021/05/09 05:04:24;;;;;;;8.78;3.00;;;;;;;9.02;67.73;101749.77;1717494;82;21255;-60
2021/05/09 05:06:52;;;;;;;3.77;2.47;;;;;;;9.10;67.95;101747.00;1738032;82;21233;-60
2021/05/09 05:09:23;;;;;;;3.83;2.40;;;;;;;9.26;67.59;101751.23;1711700;82;21242;-61
2021/05/09 05:11:53;;;;;;;4.60;3.05;;;;;;;9.43;66.34;101756.38;1713947;82;21213;-60
2021/05/09 05:14:21;;;;;;;4.55;3.00;;;;;;;9.52;66.74;101753.12;1737632;82;21206;-60
2021/05/09 05:16:48;;;;;;;5.35;2.52;;;;;;;9.68;66.81;101761.36;1731173;82;21545;-60
2021/05/09 05:19:16;;;;;;;7.47;2.72;;;;;;;9.86;66.01;101761.52;1733405;82;21193;-60
2021/05/09 05:21:44;;;;;;;4.25;2.52;;;;;;;9.97;65.11;101761.83;1712989;82;21834;-62
2021/05/09 05:24:16;;;;;;;4.92;3.45;;;;;;;10.00;64.91;101755.94;1731369;82;21189;-59
2021/05/09 05:26:42;;;;;;;9.53;3.40;;;;;;;10.02;64.31;101764.83;1729843;82;21178;-61
2021/05/09 05:29:10;;;;;;;7.87;3.52;;;;;;;10.03;64.60;101767.08;1720943;82;21214;-61
2021/05/09 05:31:38;;;;;;;5.37;3.12;;;;;;;10.04;64.59;101760.80;1728921;82;21230;-61
2021/05/09 05:34:06;;;;;;;8.10;3.67;;;;;;;10.06;64.60;101768.80;1708917;82;21369;-61
2021/05/09 05:36:34;;;;;;;4.42;3.12;;;;;;;10.18;64.58;101773.53;1706813;83;21218;-60
2021/05/09 05:39:02;;;;;;;4.50;2.72;;;;;;;10.33;64.22;101784.88;1729529;82;21210;-60
2021/05/09 05:41:30;;;;;;;5.62;3.02;;;;;;;10.49;63.82;101782.83;1675889;85;21253;-61
2021/05/09 05:43:58;;;;;;;10.48;3.00;;;;;;;10.58;62.76;101784.02;1732918;82;21197;-61
2021/05/09 05:46:30;;;;;;;5.53;3.25;;;;;;;10.57;63.01;101790.30;1671975;85;21283;-61
2021/05/09 05:48:58;;;;;;;6.53;2.75;;;;;;;10.65;62.70;101787.48;1736225;82;21649;-61
2021/05/09 05:51:26;;;;;;;4.03;2.52;;;;;;;10.78;62.51;101794.84;1722632;82;21539;-60
2021/05/09 05:53:57;;;;;;;6.17;2.92;;;;;;;10.84;62.74;101785.32;1729321;82;21186;-60
2021/05/09 05:56:25;;;;;;;5.17;2.45;;;;;;;11.00;62.26;101789.05;1713356;82;21249;-60
2021/05/09 05:58:53;;;;;;;7.97;3.15;;;;;;;11.16;61.51;101797.22;1684255;85;22306;-59
2021/05/09 06:01:21;;;;;;;6.10;3.08;;;;;;;11.21;61.27;101796.23;1674979;85;21238;-60
2021/05/09 06:03:49;;;;;;;5.60;2.70;;;;;;;11.27;61.32;101785.36;1702014;82;21190;-60
2021/05/09 06:06:16;;;;;;;4.47;2.80;;;;;;;11.40;61.34;101789.56;1698348;84;21238;-60
2021/05/09 06:08:46;;;;;;;3.90;2.42;;;;;;;11.57;60.62;101794.55;1698766;82;37082;-60
2021/05/09 06:11:14;;;;;;;5.15;2.67;;;;;;;11.64;59.71;101789.92;1699936;83;22888;-60
2021/05/09 06:13:41;;;;;;;5.05;2.58;;;;;;;11.63;59.42;101793.98;1698735;83;21218;-60
2021/05/09 06:16:09;;;;;;;7.85;2.90;;;;;;;11.61;59.68;101798.06;1705908;82;21191;-60
2021/05/09 06:18:37;;;;;;;4.62;2.98;;;;;;;11.74;59.99;101800.87;1704350;82;21506;-60
2021/05/09 06:21:05;;;;;;;8.88;3.65;;;;;;;11.96;59.43;101813.80;1707192;82;21182;-60
2021/05/09 06:23:33;;;;;;;6.83;3.33;;;;;;;12.16;58.52;101811.12;1719459;82;22123;-61
2021/05/09 06:26:00;;;;;;;4.33;2.80;;;;;;;12.32;58.37;101807.14;1700060;84;21242;-61
2021/05/09 06:28:28;;;;;;;4.62;2.83;;;;;;;12.48;58.23;101809.41;1700003;82;21206;-61
2021/05/09 06:30:56;;;;;;;6.55;2.55;;;;;;;12.64;57.10;101806.33;1700526;82;21206;-61
2021/05/09 06:33:23;;;;;;;6.10;2.60;;;;;;;12.76;57.15;101800.63;1699517;84;21289;-60
2021/05/09 06:35:53;;;;;;;3.90;2.58;;;;;;;12.89;56.30;101789.92;1690986;82;22869;-61
2021/05/09 06:38:22;;;;;;;6.10;2.62;;;;;;;12.97;56.05;101799.61;1700684;82;21203;-60
2021/05/09 06:40:49;;;;;;;3.17;2.20;;;;;;;13.07;55.86;101802.45;1700308;83;21210;-61
2021/05/09 06:43:18;;;;;;;3.75;2.45;;;;;;;13.17;54.88;101806.66;1714912;82;21784;-61
2021/05/09 06:45:47;;;;;;;4.28;2.40;;;;;;;13.21;54.30;101806.56;1656413;85;21186;-61
2021/05/09 06:48:15;;;;;;;4.80;2.30;;;;;;;13.20;54.29;101807.01;1729190;82;22231;-61
2021/05/09 06:50:43;;;;;;;6.17;2.33;;;;;;;13.23;54.34;101806.05;1671705;83;21217;-60
2021/05/09 06:53:11;;;;;;;4.45;2.30;;;;;;;13.28;54.57;101807.69;1730082;82;21246;-61
2021/05/09 06:55:40;;;;;;;7.10;3.45;;;;;;;13.39;54.29;101807.37;1737876;82;21218;-61
2021/05/09 06:58:10;;;;;;;4.92;2.27;;;;;;;13.43;52.83;101818.50;1676314;85;21271;-61
2021/05/09 07:00:38;;;;;;;4.53;2.58;;;;;;;13.38;52.62;101816.38;1714307;82;21652;-61
2021/05/09 07:03:06;;;;;;;3.52;2.20;;;;;;;13.42;52.75;101814.01;1708105;83;21205;-61
2021/05/09 07:05:35;;;;;;;3.50;1.75;;;;;;;13.45;52.06;101812.59;1729198;82;21198;-59
2021/05/09 07:08:04;;;;;;;3.75;2.08;;;;;;;13.48;51.97;101819.69;1717965;82;21205;-60
2021/05/09 07:10:34;;;;;;;2.27;1.92;;;;;;;13.42;51.81;101818.05;1682641;84;21380;-60
2021/05/09 07:13:03;;;;;;;3.35;2.42;;;;;;;13.38;50.32;101813.69;1708905;83;21259;-60
2021/05/09 07:15:36;;;;;;;2.42;1.60;;;;;;;13.32;51.15;101820.58;1728138;82;21269;-61
2021/05/09 07:18:12;;;;;;;4.72;3.08;;;;;;;13.28;50.27;101829.23;1709281;83;21214;-60
2021/05/09 07:20:53;;;;;;;4.37;2.08;;;;;;;13.34;50.51;101818.72;1709109;82;21211;-61
2021/05/09 07:23:15;;;;;;;4.72;1.65;;;;;;;13.43;50.12;101831.97;1731153;82;21215;-61
2021/05/09 07:25:42;;;;;;;3.45;2.22;;;;;;;13.42;48.96;101846.34;1708772;82;21528;-61
2021/05/09 07:28:13;;;;;;;3.37;2.00;;;;;;;13.36;47.99;101849.19;1721974;82;21218;-61
2021/05/09 07:30:43;;;;;;;12.78;2.45;;;;;;;13.41;48.72;101828.41;1728535;82;21550;-60
2021/05/09 07:33:15;;;;;;;3.75;1.90;;;;;;;13.54;48.48;101844.22;1738395;82;21209;-61
2021/05/09 07:35:42;;;;;;;6.20;1.70;;;;;;;13.59;48.19;101838.22;1723753;82;21199;-59
2021/05/09 07:38:12;;;;;;;4.35;1.80;;;;;;;13.67;48.84;101844.28;1708968;83;21554;-61
2021/05/09 07:40:40;;;;;;;3.35;1.62;;;;;;;13.70;49.21;101830.70;1734471;82;21206;-59
2021/05/09 07:43:10;;;;;;;8.60;1.80;;;;;;;13.67;48.28;101842.03;1723497;82;21241;-61
2021/05/09 07:45:39;;;;;;;8.00;1.82;;;;;;;13.72;48.28;101832.88;1729174;82;21230;-61
2021/05/09 07:48:10;;;;;;;4.25;2.27;;;;;;;13.87;48.42;101832.00;1721384;82;21238;-60
2021/05/09 07:50:39;;;;;;;2.67;2.30;;;;;;;14.02;44.55;101843.62;1718853;82;22282;-61
2021/05/09 07:53:07;;;;;;;3.15;2.40;;;;;;;14.01;43.69;101855.34;1720461;82;21484;-61
2021/05/09 07:55:35;;;;;;;2.52;1.82;;;;;;;13.98;44.76;101840.61;1708886;82;21377;-60
2021/05/09 07:58:17;;;;;;;17.48;1.70;;;;;;;13.99;45.14;101849.11;1708901;83;21201;-61
2021/05/09 08:00:45;;;;;;;7.33;1.50;;;;;;;13.92;44.71;101865.08;1650812;85;21162;-60
2021/05/09 08:03:13;;;;;;;6.85;1.62;;;;;;;13.79;43.84;101843.47;1714853;82;21576;-60
2021/05/09 08:05:44;;;;;;;7.58;1.47;;;;;;;13.81;44.57;101837.11;1708763;82;21230;-59
2021/05/09 08:08:12;;;;;;;2.80;1.95;;;;;;;13.89;44.24;101834.17;1736870;82;21221;-61
2021/05/09 08:10:43;;;;;;;2.65;1.77;;;;;;;13.94;44.17;101822.77;1708367;83;21539;-61
2021/05/09 08:13:12;;;;;;;2.12;1.22;;;;;;;13.96;43.24;101845.66;1649465;86;21434;-61
2021/05/09 08:15:40;;;;;;;1.87;1.45;;;;;;;13.98;40.33;101833.87;1677417;84;21751;-59
2021/05/09 08:18:08;;;;;;;3.15;1.45;;;;;;;13.91;39.72;101845.79;1684429;84;21239;-61
2021/05/09 08:20:37;;;;;;;4.10;1.55;;;;;;;13.83;40.75;101864.03;1737620;82;21230;-60
2021/05/09 08:23:06;;;;;;;4.80;1.12;;;;;;;13.84;40.60;101855.02;1684616;84;21183;-59
2021/05/09 08:25:36;;;;;;;1.82;1.07;;;;;;;13.84;40.04;101857.70;1676670;85;21618;-62
2021/05/09 08:28:05;;;;;;;5.30;1.27;;;;;;;13.88;40.68;101844.55;1694649;84;21425;-60
2021/05/09 08:30:32;;;;;;;6.60;1.57;;;;;;;13.89;40.38;101839.57;1705526;82;21217;-60
2021/05/09 08:33:00;;;;;;;5.37;1.20;;;;;;;13.89;41.81;101855.74;1723355;82;21206;-60
2021/05/09 08:35:29;;;;;;;2.37;1.22;;;;;;;13.93;41.92;101850.66;1734582;82;21186;-60
2021/05/09 08:37:57;;;;;;;1.52;1.10;;;;;;;13.97;41.40;101842.89;1722752;82;21206;-62
2021/05/09 08:40:25;;;;;;;2.42;1.30;;;;;;;14.00;40.09;101829.30;1676864;84;21381;-61
2021/05/09 08:42:53;;;;;;;4.72;1.10;;;;;;;14.00;40.29;101841.44;1676467;85;21269;-59
2021/05/09 08:45:21;;;;;;;3.00;1.10;;;;;;;14.11;39.85;101847.84;1738064;82;21261;-61
2021/05/09 08:47:50;;;;;;;1.40;1.30;;;;;;;14.21;38.42;101838.98;1724013;82;21151;-61
2021/05/09 08:50:20;;;;;;;2.45;1.22;;;;;;;14.22;38.13;101852.88;1708828;83;21245;-60
2021/05/09 08:52:49;;;;;;;4.87;1.57;;;;;;;14.27;38.53;101851.39;1711960;82;21376;-62
2021/05/09 08:55:26;;;;;;;5.33;1.47;;;;;;;14.35;39.19;101847.09;1723498;83;21266;-60
2021/05/09 08:57:56;;;;;;;3.62;1.10;;;;;;;14.47;39.23;101855.66;1738580;82;21229;-60
2021/05/09 09:00:26;;;;;;;2.85;1.10;;;;;;;14.65;38.77;101859.12;1738433;82;21201;-60
2021/05/09 09:02:55;;;;;;;3.30;1.40;;;;;;;14.75;38.76;101859.27;1710728;82;21186;-60
2021/05/09 09:05:43;;;;;;;1.82;1.05;;;;;;;14.88;38.72;101845.73;1709242;82;21213;-60
2021/05/09 09:08:14;;;;;;;2.05;1.30;;;;;;;15.00;38.92;101861.09;1721404;82;21218;-61
2021/05/09 09:10:51;;;;;;;4.75;1.25;;;;;;;14.99;39.19;101848.53;1675422;85;21229;-60
2021/05/09 09:13:30;;;;;;;3.05;1.30;;;;;;;14.95;37.81;101872.05;1683023;84;21258;-61
2021/05/09 09:16:06;;;;;;;4.08;1.70;;;;;;;14.83;38.82;101855.81;1733560;82;21653;-59
2021/05/09 09:18:37;;;;;;;3.75;1.40;;;;;;;14.76;39.57;101858.33;1727526;82;22175;-60
2021/05/09 09:21:29;;;;;;;1.65;1.15;;;;;;;14.65;40.15;101859.12;1730163;82;21190;-62
2021/05/09 09:24:10;;;;;;;2.15;1.37;;;;;;;14.57;39.99;101871.07;1724011;82;21216;-61
2021/05/09 09:26:41;;;;;;;1.50;1.30;;;;;;;14.56;40.43;101853.56;1712878;82;22355;-60
2021/05/09 09:29:29;;;;;;;4.20;1.60;;;;;;;14.64;41.01;101867.70;1719138;82;21142;-61
2021/05/09 09:32:02;;;;;;;1.77;1.25;;;;;;;14.80;40.90;101869.42;1738333;82;21367;-61
2021/05/09 09:34:43;;;;;;;4.35;1.30;;;;;;;14.97;41.00;101880.11;1728835;82;21227;-60
2021/05/09 09:37:12;;;;;;;2.52;1.32;;;;;;;15.12;40.09;101870.56;1707265;82;21214;-60
2021/05/09 09:39:54;;;;;;;1.75;1.10;;;;;;;15.10;39.92;101865.20;1716739;82;21221;-62
2021/05/09 09:42:47;;;;;;;1.10;0.90;;;;;;;15.18;38.77;101879.79;1733986;82;21205;-59
2021/05/09 09:45:29;;;;;;;2.25;1.40;;;;;;;15.16;38.53;101875.81;1733690;82;23425;-61
2021/05/09 09:48:02;;;;;;;2.37;1.20;;;;;;;15.17;39.68;101862.72;1726130;82;21214;-61
2021/05/09 09:50:41;;;;;;;4.65;1.20;;;;;;;15.16;39.57;101866.81;1730252;81;21213;-61
2021/05/09 09:53:31;;;;;;;10.50;1.25;;;;;;;15.15;39.62;101867.75;1731808;82;21189;-61
2021/05/09 09:56:08;;;;;;;1.80;1.27;;;;;;;15.18;39.06;101880.69;1738396;82;21233;-61
2021/05/09 09:59:02;;;;;;;1.60;1.10;;;;;;;15.20;39.07;101864.89;1722990;82;22598;-61
2021/05/09 10:01:40;;;;;;;2.95;1.00;;;;;;;15.25;39.29;101888.56;1712698;82;21206;-60
2021/05/09 10:04:08;;;;;;;1.85;1.12;;;;;;;15.37;39.71;101867.86;1708518;83;21210;-60
2021/05/09 10:06:38;;;;;;;3.72;1.00;;;;;;;15.49;39.66;101866.51;1708649;82;21265;-60
2021/05/09 10:09:08;;;;;;;9.08;1.35;;;;;;;15.51;38.60;101867.78;1709406;82;21664;-61
2021/05/09 10:11:37;;;;;;;2.15;1.30;;;;;;;15.46;38.75;101878.30;1658602;84;21478;-60
2021/05/09 10:14:07;;;;;;;1.92;1.37;;;;;;;15.37;38.87;101881.82;1650418;86;21147;-61
2021/05/09 10:16:37;;;;;;;2.12;1.10;;;;;;;15.25;39.27;101888.11;1669702;85;21659;-61
2021/05/09 10:19:14;;;;;;;1.42;1.00;;;;;;;15.21;38.65;101870.70;1632093;86;21234;-61
2021/05/09 10:21:42;;;;;;;2.17;1.17;;;;;;;15.20;38.70;101887.37;1674120;84;21225;-60
2021/05/09 10:24:23;;;;;;;1.57;0.90;;;;;;;15.22;38.86;101890.03;1681465;84;21690;-61
2021/05/09 10:26:58;;;;;;;2.45;1.20;;;;;;;15.14;39.17;101873.64;1677835;84;21241;-61
2021/05/09 10:29:41;;;;;;;1.75;1.50;;;;;;;15.13;39.23;101860.17;1649523;85;21425;-61
2021/05/09 10:32:22;;;;;;;1.42;1.00;;;;;;;15.18;39.60;101857.72;1709194;82;21551;-61
2021/05/09 10:35:01;;;;;;;1.17;1.07;;;;;;;15.30;38.02;101860.89;1713955;82;21194;-60
2021/05/09 10:40:37;;;;;;;2.55;1.50;;;;;;;15.34;37.86;101853.08;1837564;77;28304;-60
2021/05/09 10:43:12;;;;;;;2.42;1.20;;;;;;;15.33;38.31;101870.23;1796136;79;21166;-61
2021/05/09 10:45:46;;;;;;;0.90;0.80;;;;;;;15.38;38.04;101868.27;1792524;78;21177;-61
2021/05/09 10:48:25;;;;;;;2.25;0.82;;;;;;;15.34;36.94;101876.05;1779844;80;21246;-61
2021/05/09 10:51:11;;;;;;;1.35;1.10;;;;;;;15.26;37.46;101877.71;1779892;80;21353;-60
2021/05/09 10:53:40;;;;;;;1.42;1.32;;;;;;;15.26;36.95;101870.06;1751971;80;21164;-61
2021/05/09 10:56:21;;;;;;;2.60;1.20;;;;;;;15.26;36.99;101868.25;1769366;80;21074;-61
2021/05/09 10:58:51;;;;;;;3.12;0.90;;;;;;;15.31;37.22;101856.80;1751564;80;21388;-61
2021/05/09 11:01:26;;;;;;;1.37;0.98;;;;;;;15.35;37.70;101856.19;1746553;80;21233;-61
2021/05/09 11:04:13;;;;;;;2.42;0.90;;;;;;;15.46;37.71;101853.98;1724361;81;21217;-60
2021/05/09 11:06:50;;;;;;;2.92;0.70;;;;;;;15.60;36.64;101855.28;1720761;81;21261;-62
2021/05/09 11:09:28;;;;;;;1.67;1.00;;;;;;;15.68;36.35;101853.16;1733698;81;21257;-60
2021/05/09 11:12:00;;;;;;;1.15;0.98;;;;;;;15.79;36.43;101864.90;1742496;81;21382;-61
2021/05/09 11:14:30;;;;;;;1.15;0.90;;;;;;;15.81;36.52;101849.98;1772874;80;21213;-62
2021/05/09 11:17:03;;;;;;;1.42;0.85;;;;;;;15.82;36.91;101847.69;1762581;80;21568;-61
2021/05/09 11:19:44;;;;;;;2.52;1.55;;;;;;;15.84;36.37;101849.37;1740586;82;21214;-62
2021/05/09 11:22:12;;;;;;;1.70;1.00;;;;;;;15.80;36.69;101856.30;1755952;80;21223;-61
2021/05/09 11:24:42;;;;;;;3.05;1.17;;;;;;;15.79;36.75;101859.95;1729757;80;21664;-61
2021/05/09 11:27:16;;;;;;;2.17;0.90;;;;;;;15.78;36.78;101863.59;1751680;80;21215;-61
2021/05/09 11:29:49;;;;;;;4.03;1.70;;;;;;;15.73;37.03;101857.91;1717553;82;21190;-61
2021/05/09 11:32:19;;;;;;;2.10;1.30;;;;;;;15.81;42.13;101855.39;1725989;82;21214;-61
2021/05/09 11:35:00;;;;;;;3.05;1.15;;;;;;;15.82;42.40;101863.42;1759957;80;21205;-60
2021/05/09 11:37:40;;;;;;;3.05;1.40;;;;;;;15.79;37.91;101859.95;1747606;80;21470;-61
2021/05/09 11:40:10;;;;;;;2.52;1.65;;;;;;;15.71;37.62;101869.25;1738708;82;21210;-61
2021/05/09 11:42:38;;;;;;;3.87;1.95;;;;;;;15.68;43.10;101842.34;1741692;81;21190;-60
2021/05/09 11:45:07;;;;;;;2.87;1.60;;;;;;;15.72;44.67;101850.73;1705434;84;21223;-61
2021/05/09 11:47:35;;;;;;;2.65;1.50;;;;;;;15.70;45.23;101842.30;1703626;82;21234;-61
2021/05/09 11:50:07;;;;;;;3.87;1.90;;;;;;;15.65;44.54;101847.88;1722893;82;22149;-61